Lake San Marcos, California
Current Conditions -  °F | °C
As of 10:53 AM on Thursday 23 Oct 2014 (Local Time) from KCRQ Reporting Station
Clear Clear  
Wind Chill: 73°   Ceiling: Unl
Heat Index: 73°   Visibility: 10mi
Dew Point: 57°   Wind: 7mph
Humidity: 57%   Direction: 250°WSW
Pressure: 29.99"   Gusts: NA
Location:  33.1507°N, 117.174°W
Report Text: KCRQ 231753Z 25006KT 10SM CLR 23/14 A2999 RMK AO2 SLP153 T02280139 10233 20144 51010
Loading
Personal Weather Stations






























Interactive Weather Map
Tropical Storm Tracking
New forecast layout! Learn more

10-Day Weather Forecast

Advertisements
Track Severe Weather on mobile